Time;durP1;ratioP1;P1;durP2;ratioP2;P2;SDS_P1;SDS_P2;PMS_P1;PMS_P2;Temp;Humidity;BMP_temperature;BMP_pressure;BME280_temperature;BME280_humidity;BME280_pressure;Samples;Min_cycle;Max_cycle;Signal;HPM_P1;HPM_P2
2023/03/31 00:00:56;;;;;;;13.20;12.80;;;13.00;99.90;;;;;;5086330;28;20473;-79
2023/03/31 00:03:25;;;;;;;12.93;12.20;;;12.90;99.90;;;;;;5084442;28;20487;-79
2023/03/31 00:05:56;;;;;;;12.90;12.33;;;12.90;99.90;;;;;;5081439;28;20490;-78
2023/03/31 00:08:28;;;;;;;12.73;12.13;;;12.90;99.90;;;;;;5084960;28;20464;-77
2023/03/31 00:11:00;;;;;;;13.33;12.73;;;12.90;99.90;;;;;;5080878;28;20468;-78
2023/03/31 00:13:30;;;;;;;13.20;12.60;;;12.90;99.90;;;;;;5083821;28;20453;-80
2023/03/31 00:15:59;;;;;;;13.13;12.27;;;12.80;99.90;;;;;;5081356;28;20507;-79
2023/03/31 00:18:28;;;;;;;13.93;13.33;;;12.80;99.90;;;;;;5082894;28;20581;-77
2023/03/31 00:21:06;;;;;;;13.50;13.00;;;12.90;99.90;;;;;;5083722;28;20459;-78
2023/03/31 00:23:35;;;;;;;13.37;12.67;;;12.80;99.90;;;;;;5083518;28;20544;-81
2023/03/31 00:26:04;;;;;;;14.43;13.73;;;12.90;99.90;;;;;;5083814;28;20448;-78
2023/03/31 00:28:33;;;;;;;13.97;13.40;;;12.90;99.90;;;;;;5077949;28;20577;-75
2023/03/31 00:31:02;;;;;;;13.47;12.97;;;12.90;99.90;;;;;;5085053;28;20470;-81
2023/03/31 00:33:30;;;;;;;13.80;13.30;;;12.90;99.90;;;;;;5086210;28;20451;-79
2023/03/31 00:36:00;;;;;;;13.70;13.00;;;12.90;99.90;;;;;;5083153;28;20846;-80
2023/03/31 00:38:29;;;;;;;14.13;13.37;;;12.80;1.00;;;;;;5081240;28;21242;-80
2023/03/31 00:40:58;;;;;;;13.50;12.90;;;12.90;99.90;;;;;;5085538;28;20453;-81
2023/03/31 00:43:33;;;;;;;14.00;13.60;;;12.90;99.90;;;;;;5085599;28;20481;-80
2023/03/31 00:46:06;;;;;;;14.23;13.53;;;12.90;99.90;;;;;;5084881;28;21067;-81
2023/03/31 00:48:37;;;;;;;13.97;13.40;;;12.90;99.90;;;;;;5082485;28;20527;-81
2023/03/31 00:51:07;;;;;;;14.23;13.63;;;12.90;99.90;;;;;;5085699;28;20449;-80
2023/03/31 00:53:37;;;;;;;14.20;13.40;;;12.90;99.90;;;;;;5087254;28;20451;-79
2023/03/31 00:56:10;;;;;;;14.07;13.43;;;12.80;99.90;;;;;;5086035;28;20494;-80
2023/03/31 00:58:42;;;;;;;13.60;13.10;;;12.90;99.90;;;;;;5086230;28;20891;-77
2023/03/31 01:01:16;;;;;;;14.13;13.33;;;12.90;99.90;;;;;;5082511;28;20453;-77
2023/03/31 01:03:45;;;;;;;13.80;13.20;;;12.90;99.90;;;;;;5085028;28;20467;-80
2023/03/31 01:06:18;;;;;;;13.87;13.30;;;12.90;99.90;;;;;;5087080;28;20450;-82
2023/03/31 01:08:48;;;;;;;14.20;13.60;;;12.90;99.90;;;;;;5085161;28;20898;-80
2023/03/31 01:11:19;;;;;;;13.90;13.43;;;12.90;99.90;;;;;;5088918;28;20439;-78
2023/03/31 01:13:54;;;;;;;14.10;13.23;;;12.90;99.90;;;;;;5093008;28;20491;-79
2023/03/31 01:16:23;;;;;;;13.10;12.70;;;12.90;99.90;;;;;;5094694;28;20487;-83
2023/03/31 01:18:51;;;;;;;13.90;13.20;;;12.90;99.90;;;;;;5090900;28;20470;-80
2023/03/31 01:22:07;;;;;;;13.20;12.70;;;12.90;99.90;;;;;;5087791;28;20458;-76
2023/03/31 01:25:07;;;;;;;13.40;12.80;;;12.90;99.90;;;;;;5049319;28;20486;-78
2023/03/31 01:27:52;;;;;;;13.80;13.20;;;12.90;99.90;;;;;;5089347;28;20482;-80
2023/03/31 01:31:06;;;;;;;12.97;12.57;;;12.80;99.90;;;;;;5083573;28;20528;-80
2023/03/31 01:34:22;;;;;;;13.53;12.93;;;12.80;99.90;;;;;;5082670;28;20459;-77
2023/03/31 01:37:37;;;;;;;14.17;13.47;;;12.90;99.90;;;;;;5080491;28;20520;-76
2023/03/31 01:40:20;;;;;;;13.90;13.10;;;12.80;99.90;;;;;;5080930;28;20469;-79
2023/03/31 01:42:53;;;;;;;13.80;13.20;;;12.80;1.00;;;;;;5084329;28;20454;-77
2023/03/31 01:45:33;;;;;;;14.17;13.47;;;12.80;1.00;;;;;;5081631;28;20601;-79
2023/03/31 01:48:06;;;;;;;13.83;13.33;;;12.80;1.00;;;;;;5073925;28;21097;-79
2023/03/31 01:50:42;;;;;;;13.97;13.30;;;12.80;1.00;;;;;;5082323;28;20512;-80
2023/03/31 01:53:18;;;;;;;14.60;13.80;;;12.70;1.00;;;;;;5083392;28;20817;-78
2023/03/31 01:55:55;;;;;;;14.07;13.47;;;12.60;1.00;;;;;;5086965;28;20527;-78
2023/03/31 01:58:27;;;;;;;14.70;13.90;;;12.40;1.00;;;;;;5090147;28;20449;-78
2023/03/31 02:01:00;;;;;;;14.30;13.67;;;12.50;29.80;;;;;;5088074;28;20504;-76
2023/03/31 02:03:33;;;;;;;14.40;13.70;;;12.50;22.90;;;;;;5091380;28;20489;-81
2023/03/31 02:06:07;;;;;;;13.80;13.40;;;12.50;1.00;;;;;;5090319;28;20550;-81
2023/03/31 02:08:39;;;;;;;15.17;14.57;;;12.50;87.40;;;;;;5086972;28;20475;-79
2023/03/31 02:11:09;;;;;;;14.57;14.07;;;12.50;99.90;;;;;;5087690;28;21397;-79
2023/03/31 02:13:43;;;;;;;15.80;14.40;;;12.50;99.90;;;;;;5089445;28;20445;-80
2023/03/31 02:16:17;;;;;;;15.00;14.30;;;12.50;99.90;;;;;;5091370;28;20478;-77
2023/03/31 02:18:48;;;;;;;15.13;14.37;;;12.40;99.90;;;;;;5088461;28;20502;-79
2023/03/31 02:21:17;;;;;;;14.73;14.23;;;12.40;99.90;;;;;;5087302;28;20461;-79
2023/03/31 02:23:47;;;;;;;14.17;13.57;;;12.40;99.90;;;;;;5087946;28;20547;-80
2023/03/31 02:26:20;;;;;;;14.40;13.80;;;12.30;1.00;;;;;;5086750;28;20505;-80
2023/03/31 02:28:48;;;;;;;15.03;14.20;;;12.30;1.00;;;;;;5087283;28;20458;-79
2023/03/31 02:31:26;;;;;;;14.80;14.20;;;12.20;1.00;;;;;;5086627;28;20519;-80
2023/03/31 02:33:55;;;;;;;15.43;14.63;;;12.20;1.00;;;;;;5081030;28;20519;-79
2023/03/31 02:36:24;;;;;;;14.93;14.43;;;12.10;1.00;;;;;;5086840;28;20454;-80
2023/03/31 02:38:56;;;;;;;14.90;14.30;;;12.10;37.80;;;;;;5086084;28;20504;-77
2023/03/31 02:41:26;;;;;;;15.50;14.80;;;12.20;5.30;;;;;;5081945;28;20555;-79
2023/03/31 02:43:54;;;;;;;15.60;15.00;;;12.20;1.00;;;;;;5081257;28;20466;-80
2023/03/31 02:46:22;;;;;;;15.47;14.60;;;12.20;1.00;;;;;;5082807;28;20476;-79
2023/03/31 02:48:54;;;;;;;14.87;14.37;;;12.10;1.00;;;;;;5081190;28;20478;-80
2023/03/31 02:51:58;;;;;;;15.17;14.50;;;12.00;1.00;;;;;;5085154;28;20453;-79
2023/03/31 02:54:55;;;;;;;15.43;14.80;;;12.00;1.00;;;;;;5087637;28;20461;-82
2023/03/31 02:57:39;;;;;;;15.30;14.80;;;12.00;1.00;;;;;;5085076;28;20446;-79
2023/03/31 03:00:15;;;;;;;15.83;14.87;;;12.00;1.00;;;;;;5083123;28;20466;-77
2023/03/31 03:02:56;;;;;;;15.13;14.53;;;12.00;1.00;;;;;;5083457;28;20798;-81
2023/03/31 03:05:33;;;;;;;14.80;14.00;;;12.00;1.00;;;;;;5083470;28;20584;-78
2023/03/31 03:08:15;;;;;;;15.83;15.10;;;11.90;14.20;;;;;;5087518;28;20461;-78
2023/03/31 03:10:53;;;;;;;15.20;14.70;;;11.90;1.00;;;;;;5086363;28;20482;-81
2023/03/31 03:13:30;;;;;;;15.20;14.60;;;11.90;1.00;;;;;;5080903;28;20589;-80
2023/03/31 03:16:04;;;;;;;17.20;16.47;;;11.90;4.50;;;;;;5084870;28;20641;-79
2023/03/31 03:18:32;;;;;;;15.33;14.80;;;11.80;30.50;;;;;;5081461;28;20615;-80
2023/03/31 03:21:00;;;;;;;15.30;14.83;;;11.90;75.20;;;;;;5083370;28;20460;-78
2023/03/31 03:23:30;;;;;;;15.30;14.77;;;11.80;48.40;;;;;;5086148;28;21181;-81
2023/03/31 03:25:58;;;;;;;15.90;15.07;;;11.90;37.60;;;;;;5081946;28;20574;-77
2023/03/31 03:28:27;;;;;;;15.37;14.57;;;11.80;68.80;;;;;;5085183;28;20450;-78
2023/03/31 03:30:55;;;;;;;15.37;14.87;;;11.70;99.90;;;;;;5081325;28;20463;-80
2023/03/31 03:33:24;;;;;;;15.63;15.03;;;11.70;99.90;;;;;;5082907;28;20455;-77
2023/03/31 03:35:52;;;;;;;15.03;14.43;;;11.70;99.90;;;;;;5085057;28;20458;-80
2023/03/31 03:38:20;;;;;;;15.10;14.60;;;11.70;99.90;;;;;;5085595;28;20530;-80
2023/03/31 03:40:53;;;;;;;16.17;15.50;;;11.80;99.90;;;;;;5082328;28;20492;-80
2023/03/31 03:43:21;;;;;;;15.27;14.77;;;11.80;99.90;;;;;;5083784;28;20663;-80
2023/03/31 03:45:50;;;;;;;16.83;15.60;;;11.80;99.90;;;;;;5085317;28;20574;-77
2023/03/31 03:48:19;;;;;;;15.70;15.00;;;11.70;99.90;;;;;;5085583;28;20445;-79
2023/03/31 03:50:47;;;;;;;16.37;15.17;;;11.70;1.00;;;;;;5085092;28;20438;-77
2023/03/31 03:53:16;;;;;;;16.10;15.40;;;11.70;1.00;;;;;;5082691;28;20443;-81
2023/03/31 03:55:47;;;;;;;15.50;14.90;;;11.70;99.90;;;;;;5081960;28;21089;-81
2023/03/31 03:58:16;;;;;;;15.87;15.30;;;11.60;1.00;;;;;;5078350;28;20458;-78
2023/03/31 04:00:45;;;;;;;16.80;16.00;;;11.60;1.00;;;;;;5080164;28;20450;-80
2023/03/31 04:03:15;;;;;;;15.83;15.23;;;11.60;1.00;;;;;;5082114;28;20453;-80
2023/03/31 04:05:43;;;;;;;16.17;15.20;;;11.60;51.00;;;;;;5084362;28;20480;-79
2023/03/31 04:08:11;;;;;;;15.77;15.00;;;11.60;1.00;;;;;;5084368;28;20519;-79
2023/03/31 04:10:44;;;;;;;15.40;14.90;;;11.50;99.90;;;;;;5086628;28;20449;-77
2023/03/31 04:13:13;;;;;;;16.17;15.40;;;11.40;99.90;;;;;;5083570;28;20526;-80
2023/03/31 04:15:41;;;;;;;15.87;15.23;;;11.30;99.90;;;;;;5085107;28;20521;-76
2023/03/31 04:18:17;;;;;;;15.77;15.17;;;11.40;99.90;;;;;;5084659;28;21232;-79
2023/03/31 04:20:53;;;;;;;15.77;15.00;;;11.40;99.90;;;;;;5082424;28;20504;-81
2023/03/31 04:23:25;;;;;;;16.20;15.60;;;11.40;99.90;;;;;;5085102;28;20472;-80
2023/03/31 04:25:53;;;;;;;16.57;15.70;;;11.40;1.00;;;;;;5081722;28;22192;-81
2023/03/31 04:28:22;;;;;;;16.63;15.70;;;11.30;1.00;;;;;;5084469;28;20484;-78
2023/03/31 04:30:53;;;;;;;16.97;15.93;;;11.40;1.00;;;;;;5084095;28;20458;-78
2023/03/31 04:33:22;;;;;;;16.10;15.20;;;11.30;1.00;;;;;;5081688;28;20473;-78
2023/03/31 04:35:52;;;;;;;17.00;16.30;;;11.40;1.00;;;;;;5081123;28;20471;-77
2023/03/31 04:38:21;;;;;;;17.57;16.63;;;11.40;1.00;;;;;;5083456;28;20470;-75
2023/03/31 04:40:52;;;;;;;17.33;16.63;;;11.40;1.00;;;;;;5084021;28;21049;-78
2023/03/31 04:43:21;;;;;;;16.87;15.80;;;11.40;1.00;;;;;;5066390;28;20528;-78
2023/03/31 04:45:49;;;;;;;16.50;15.80;;;11.40;99.90;;;;;;5075733;28;20475;-78
2023/03/31 04:48:17;;;;;;;17.70;16.80;;;11.40;1.00;;;;;;5074112;28;22434;-77
2023/03/31 04:50:47;;;;;;;17.30;16.50;;;11.40;1.00;;;;;;5075572;28;20633;-78
2023/03/31 04:53:16;;;;;;;16.57;15.87;;;11.50;99.90;;;;;;5072960;28;20535;-80
2023/03/31 04:55:45;;;;;;;17.07;16.07;;;11.60;99.90;;;;;;5073713;28;20445;-75
2023/03/31 04:58:13;;;;;;;17.23;16.00;;;11.50;72.70;;;;;;5070843;28;21036;-78
2023/03/31 05:00:41;;;;;;;17.10;16.30;;;11.60;79.10;;;;;;5082278;28;21243;-78
2023/03/31 05:03:10;;;;;;;17.60;16.70;;;11.60;10.80;;;;;;5084386;28;20994;-77
2023/03/31 05:05:38;;;;;;;17.77;16.70;;;11.60;99.90;;;;;;5085261;28;20452;-79
2023/03/31 05:08:07;;;;;;;16.97;16.37;;;11.60;99.90;;;;;;5080395;28;20454;-80
2023/03/31 05:10:36;;;;;;;19.17;18.20;;;11.60;99.90;;;;;;5077108;28;20546;-78
2023/03/31 05:13:04;;;;;;;17.60;16.90;;;11.50;1.00;;;;;;5080847;28;20442;-78
2023/03/31 05:15:32;;;;;;;17.00;16.20;;;11.50;99.90;;;;;;5083123;28;20476;-78
2023/03/31 05:18:02;;;;;;;20.17;19.07;;;11.60;99.90;;;;;;5083874;28;20451;-79
2023/03/31 05:20:30;;;;;;;19.23;18.27;;;11.60;1.00;;;;;;5085053;28;20498;-82
2023/03/31 05:22:58;;;;;;;18.87;17.77;;;11.60;99.90;;;;;;5079680;28;20483;-78
2023/03/31 05:25:31;;;;;;;18.70;17.77;;;11.60;99.90;;;;;;5084190;28;20442;-79
2023/03/31 05:28:01;;;;;;;18.73;17.73;;;11.60;6.70;;;;;;5080038;28;20487;-79
2023/03/31 05:30:29;;;;;;;19.10;18.00;;;11.50;1.00;;;;;;5081607;28;20483;-78
2023/03/31 05:32:57;;;;;;;19.00;18.00;;;11.60;1.00;;;;;;5085441;28;20570;-78
2023/03/31 05:35:26;;;;;;;20.05;19.05;;;11.50;1.00;;;;;;5085566;28;20441;-80
2023/03/31 05:37:54;;;;;;;19.40;18.40;;;11.20;13.50;;;;;;5085000;28;20201;-78
2023/03/31 05:40:22;;;;;;;20.07;18.97;;;11.40;99.90;;;;;;5086489;28;20477;-78
2023/03/31 05:42:50;;;;;;;19.30;18.30;;;11.40;99.90;;;;;;5089386;28;20465;-79
2023/03/31 05:45:20;;;;;;;19.17;18.23;;;11.50;99.90;;;;;;5091334;28;20962;-78
2023/03/31 05:47:48;;;;;;;20.33;18.90;;;11.50;99.90;;;;;;5087678;28;20486;-79
2023/03/31 05:50:16;;;;;;;19.83;18.77;;;11.50;99.90;;;;;;5088742;28;20558;-78
2023/03/31 05:52:45;;;;;;;19.90;18.90;;;11.40;99.90;;;;;;5089425;28;20461;-78
2023/03/31 05:55:13;;;;;;;19.90;18.90;;;11.40;99.90;;;;;;5089995;28;20442;-79
2023/03/31 05:57:41;;;;;;;20.80;19.80;;;11.40;1.00;;;;;;5088717;28;20475;-82
2023/03/31 06:00:10;;;;;;;21.20;19.83;;;11.40;1.00;;;;;;5088705;28;21029;-81
2023/03/31 06:02:40;;;;;;;19.57;18.40;;;11.30;1.00;;;;;;5089118;28;20528;-79
2023/03/31 06:05:09;;;;;;;19.47;18.20;;;11.30;1.00;;;;;;5088457;28;21092;-80
2023/03/31 06:07:37;;;;;;;19.97;18.90;;;11.30;54.60;;;;;;5088877;28;20490;-80
2023/03/31 06:10:07;;;;;;;20.17;19.17;;;11.30;99.90;;;;;;5086554;28;20484;-81
2023/03/31 06:12:35;;;;;;;20.37;19.03;;;11.30;99.90;;;;;;5090922;28;20458;-79
2023/03/31 06:15:04;;;;;;;18.97;18.00;;;11.30;99.90;;;;;;5091031;28;20445;-79
2023/03/31 06:17:32;;;;;;;19.00;18.00;;;11.30;99.90;;;;;;5089298;28;21265;-80
2023/03/31 06:20:04;;;;;;;19.27;18.30;;;11.30;99.90;;;;;;5087158;28;20486;-79
2023/03/31 06:22:51;;;;;;;18.80;17.90;;;11.30;99.90;;;;;;5087825;28;20460;-79
2023/03/31 06:25:19;;;;;;;19.87;18.57;;;11.30;99.90;;;;;;5088099;28;20448;-79
2023/03/31 06:27:47;;;;;;;20.08;19.05;;;11.30;99.90;;;;;;5081341;28;20482;-80
2023/03/31 06:30:16;;;;;;;19.63;18.37;;;11.30;99.90;;;;;;5086588;28;20229;-79
2023/03/31 06:32:44;;;;;;;20.17;19.13;;;11.30;99.90;;;;;;5085835;28;20550;-79
2023/03/31 06:35:13;;;;;;;19.47;18.57;;;11.20;99.90;;;;;;5088318;28;20458;-79
2023/03/31 06:37:42;;;;;;;20.03;19.00;;;11.30;99.90;;;;;;5081084;28;20434;-81
2023/03/31 06:40:11;;;;;;;20.10;19.10;;;11.30;99.90;;;;;;5088571;28;21295;-79
2023/03/31 06:42:39;;;;;;;20.20;18.83;;;11.30;99.90;;;;;;5085590;28;21159;-79
2023/03/31 06:45:07;;;;;;;19.83;18.90;;;11.30;99.90;;;;;;5087288;28;20457;-80
2023/03/31 06:47:37;;;;;;;19.67;18.60;;;11.20;99.90;;;;;;5086561;28;20474;-80
2023/03/31 06:50:07;;;;;;;20.70;19.10;;;11.20;1.00;;;;;;5084940;28;20492;-77
2023/03/31 06:52:36;;;;;;;19.97;18.73;;;11.20;1.00;;;;;;5084227;28;20455;-78
2023/03/31 06:55:05;;;;;;;19.53;18.70;;;11.20;1.00;;;;;;5082495;28;20464;-76
2023/03/31 06:57:34;;;;;;;20.60;19.50;;;11.20;1.00;;;;;;5077482;28;21619;-80
2023/03/31 07:00:02;;;;;;;20.20;19.13;;;11.20;1.00;;;;;;5082882;28;20482;-80
2023/03/31 07:02:31;;;;;;;19.77;18.67;;;11.10;1.00;;;;;;5085785;28;20458;-77
2023/03/31 07:04:59;;;;;;;19.10;18.10;;;11.20;1.00;;;;;;5081217;28;21094;-76
2023/03/31 07:07:30;;;;;;;20.27;19.17;;;11.20;1.00;;;;;;5086119;28;20885;-79
2023/03/31 07:10:00;;;;;;;19.27;18.40;;;11.30;1.00;;;;;;5085104;28;20524;-76
2023/03/31 07:12:29;;;;;;;19.50;18.60;;;11.30;1.00;;;;;;5087415;28;20454;-81
2023/03/31 07:14:57;;;;;;;18.20;17.50;;;11.20;1.00;;;;;;5087797;28;20511;-77
2023/03/31 07:17:25;;;;;;;18.00;17.40;;;11.20;99.90;;;;;;5087289;28;20466;-80
2023/03/31 07:19:54;;;;;;;18.53;17.80;;;11.10;1.00;;;;;;5087210;28;21105;-78
2023/03/31 07:22:23;;;;;;;18.73;17.93;;;11.10;99.90;;;;;;5083952;28;20446;-78
2023/03/31 07:24:51;;;;;;;17.77;16.97;;;11.10;35.80;;;;;;5087985;28;20449;-79
2023/03/31 07:27:21;;;;;;;17.73;17.03;;;11.10;22.00;;;;;;5085884;28;20485;-81
2023/03/31 07:29:53;;;;;;;19.17;17.63;;;11.20;99.90;;;;;;5085634;28;20478;-81
2023/03/31 07:32:22;;;;;;;17.10;16.60;;;11.20;1.00;;;;;;5086520;28;20511;-78
2023/03/31 07:34:51;;;;;;;17.57;16.97;;;11.30;1.00;;;;;;5087006;28;20454;-80
2023/03/31 07:37:19;;;;;;;17.13;16.63;;;11.50;1.00;;;;;;5084834;28;20456;-79
2023/03/31 07:39:48;;;;;;;16.80;16.20;;;11.80;1.00;;;;;;5085198;28;20470;-79
2023/03/31 07:42:16;;;;;;;16.33;15.73;;;11.90;99.90;;;;;;5086670;28;20457;-80
2023/03/31 07:44:45;;;;;;;16.60;16.10;;;12.10;1.00;;;;;;5088704;28;20454;-81
2023/03/31 07:47:14;;;;;;;16.37;15.67;;;12.10;99.90;;;;;;5087017;28;21118;-80
2023/03/31 07:49:42;;;;;;;16.40;15.90;;;12.10;1.00;;;;;;5081075;28;20549;-82
2023/03/31 07:52:10;;;;;;;16.30;15.80;;;12.00;1.00;;;;;;5085430;28;20885;-80
2023/03/31 07:54:38;;;;;;;16.30;15.90;;;12.00;1.00;;;;;;5081976;28;20504;-79
2023/03/31 07:57:07;;;;;;;16.40;15.90;;;12.10;99.90;;;;;;5087929;28;20450;-80
2023/03/31 07:59:36;;;;;;;16.50;15.80;;;12.20;1.00;;;;;;5087424;28;20504;-82
2023/03/31 08:02:06;;;;;;;16.57;16.10;;;12.30;99.90;;;;;;5084864;28;20517;-81
2023/03/31 08:04:34;;;;;;;17.17;16.77;;;12.30;1.00;;;;;;5088531;28;20449;-81
2023/03/31 08:07:02;;;;;;;17.20;16.70;;;12.60;1.00;;;;;;5086065;28;20838;-79
2023/03/31 08:09:31;;;;;;;17.33;16.83;;;12.70;99.90;;;;;;5085711;28;20589;-80
2023/03/31 08:11:59;;;;;;;17.60;17.00;;;12.80;1.00;;;;;;5085606;28;20486;-79
2023/03/31 08:14:28;;;;;;;17.17;16.70;;;12.90;99.90;;;;;;5087430;28;20460;-79
2023/03/31 08:17:09;;;;;;;17.40;16.90;;;12.90;99.90;;;;;;5087522;28;20446;-77
2023/03/31 08:19:38;;;;;;;17.83;17.13;;;12.90;99.90;;;;;;5085185;28;20564;-77
2023/03/31 08:22:06;;;;;;;17.33;16.90;;;12.80;45.80;;;;;;5082952;28;20974;-79
2023/03/31 08:24:34;;;;;;;17.50;16.90;;;12.80;99.90;;;;;;5083827;28;20467;-79
2023/03/31 08:27:02;;;;;;;17.17;16.70;;;12.90;99.90;;;;;;5079145;28;20466;-78
2023/03/31 08:29:31;;;;;;;18.30;17.70;;;13.00;99.90;;;;;;5082143;28;21004;-81
2023/03/31 08:31:59;;;;;;;17.37;16.83;;;13.10;16.10;;;;;;5083121;28;20467;-79
2023/03/31 08:34:29;;;;;;;17.70;17.20;;;13.20;99.90;;;;;;5081993;28;20874;-80
2023/03/31 08:36:57;;;;;;;18.30;17.57;;;13.30;1.00;;;;;;5081222;28;20467;-80
2023/03/31 08:39:26;;;;;;;17.77;17.00;;;13.40;1.00;;;;;;5083912;28;20580;-80
2023/03/31 08:41:58;;;;;;;17.53;17.00;;;13.60;1.00;;;;;;5081690;28;20529;-79
2023/03/31 08:44:32;;;;;;;17.53;16.97;;;13.60;31.60;;;;;;5086527;28;20518;-80
2023/03/31 08:47:02;;;;;;;17.43;16.93;;;13.70;1.00;;;;;;5084524;28;20454;-79
2023/03/31 08:49:39;;;;;;;18.10;17.60;;;13.80;1.00;;;;;;5082579;28;21114;-77
2023/03/31 08:52:13;;;;;;;17.97;17.27;;;13.80;1.00;;;;;;5081259;28;21472;-79
2023/03/31 08:54:44;;;;;;;17.77;17.17;;;13.90;1.00;;;;;;5085646;28;20914;-80
2023/03/31 08:57:17;;;;;;;18.60;17.90;;;14.00;1.00;;;;;;5085686;28;20517;-78
2023/03/31 08:59:46;;;;;;;19.10;18.30;;;14.20;99.90;;;;;;5083871;28;20917;-79
2023/03/31 09:02:24;;;;;;;17.57;17.07;;;14.30;99.90;;;;;;5085021;28;21069;-80
2023/03/31 09:05:17;;;;;;;18.37;17.57;;;14.30;99.90;;;;;;5084789;28;20451;-80
2023/03/31 09:07:54;;;;;;;17.77;16.87;;;14.40;1.00;;;;;;5085877;28;20567;-81
2023/03/31 09:10:46;;;;;;;17.20;16.70;;;14.40;1.00;;;;;;5082633;28;21016;-81
2023/03/31 09:13:32;;;;;;;17.50;17.00;;;14.50;1.00;;;;;;5081180;28;20451;-80
2023/03/31 09:16:05;;;;;;;17.40;16.90;;;14.50;1.00;;;;;;5084918;28;20967;-80
2023/03/31 09:18:36;;;;;;;17.33;16.83;;;14.50;1.00;;;;;;5084003;28;20496;-79
2023/03/31 09:21:13;;;;;;;17.60;17.00;;;14.50;1.00;;;;;;5082608;28;20448;-82
2023/03/31 09:23:48;;;;;;;17.20;16.60;;;14.50;1.00;;;;;;5083844;28;20486;-78
2023/03/31 09:26:26;;;;;;;17.10;16.50;;;14.30;1.00;;;;;;5082167;28;20466;-80
2023/03/31 09:28:57;;;;;;;17.10;16.70;;;14.30;1.00;;;;;;5084062;28;20481;-78
2023/03/31 09:31:26;;;;;;;17.33;16.43;;;14.20;1.00;;;;;;5085326;28;20469;-78
2023/03/31 09:34:01;;;;;;;16.53;16.00;;;14.00;1.00;;;;;;5087641;28;20457;-80
2023/03/31 09:36:32;;;;;;;15.80;15.30;;;14.00;1.00;;;;;;5082758;28;21966;-81
2023/03/31 09:39:00;;;;;;;16.00;15.60;;;13.90;1.00;;;;;;5084247;28;20473;-82
2023/03/31 09:41:28;;;;;;;16.40;15.70;;;14.00;1.00;;;;;;5084916;28;20455;-79
2023/03/31 09:43:58;;;;;;;16.07;15.50;;;14.20;1.00;;;;;;5083825;28;20444;-79
2023/03/31 09:46:31;;;;;;;15.83;15.30;;;14.30;1.00;;;;;;5083568;28;20481;-79
2023/03/31 09:49:05;;;;;;;16.53;15.73;;;14.30;99.90;;;;;;5085333;28;20562;-79
2023/03/31 09:51:37;;;;;;;15.80;15.20;;;14.20;99.90;;;;;;5082274;28;21042;-80
2023/03/31 09:54:14;;;;;;;15.20;14.70;;;14.20;99.90;;;;;;5081986;28;20455;-80
2023/03/31 09:56:49;;;;;;;15.07;14.57;;;14.10;99.90;;;;;;5082457;28;20460;-83
2023/03/31 09:59:19;;;;;;;16.03;14.97;;;14.20;99.90;;;;;;5082222;28;20471;-81
2023/03/31 10:01:50;;;;;;;15.20;14.40;;;14.20;99.90;;;;;;5083511;28;20508;-77
2023/03/31 10:04:23;;;;;;;15.07;14.47;;;14.30;99.90;;;;;;5083685;28;20494;-80
2023/03/31 10:06:54;;;;;;;15.60;15.00;;;14.30;99.90;;;;;;5082900;28;20923;-76
2023/03/31 10:09:27;;;;;;;15.30;14.77;;;14.20;99.90;;;;;;5083046;28;20985;-81
2023/03/31 10:11:57;;;;;;;15.40;14.80;;;14.40;99.90;;;;;;5086499;28;20453;-77
2023/03/31 10:14:32;;;;;;;16.20;15.43;;;14.60;99.90;;;;;;5080459;28;20950;-80
2023/03/31 10:17:05;;;;;;;14.97;14.10;;;14.60;99.90;;;;;;5082358;28;20445;-80
2023/03/31 10:19:36;;;;;;;15.00;14.40;;;14.70;99.90;;;;;;5088929;28;20995;-79
2023/03/31 10:22:14;;;;;;;14.97;14.37;;;14.70;99.90;;;;;;5083239;28;20486;-81
2023/03/31 10:24:44;;;;;;;14.73;14.23;;;14.90;99.90;;;;;;5089354;28;20433;-81
2023/03/31 10:27:22;;;;;;;933.20;354.70;;;14.90;99.90;;;;;;5085257;28;20817;-78
2023/03/31 10:29:53;;;;;;;62.07;34.70;;;15.10;99.90;;;;;;5085156;28;20549;-77
2023/03/31 10:32:27;;;;;;;46.83;29.73;;;15.00;99.90;;;;;;5085825;28;20539;-77
2023/03/31 10:34:57;;;;;;;17.40;16.27;;;14.90;99.90;;;;;;5086550;28;20458;-79
2023/03/31 10:37:28;;;;;;;16.90;16.00;;;15.10;99.90;;;;;;5089015;28;20454;-79
2023/03/31 10:39:58;;;;;;;16.87;15.50;;;15.20;99.90;;;;;;5082829;28;20469;-80
2023/03/31 10:42:28;;;;;;;15.80;14.97;;;15.30;99.90;;;;;;5085858;28;20485;-80
2023/03/31 10:45:12;;;;;;;15.83;14.87;;;15.30;99.90;;;;;;5085731;28;21094;-80
2023/03/31 10:47:55;;;;;;;20.38;18.42;;;15.60;99.90;;;;;;5087560;28;20443;-80
2023/03/31 10:50:29;;;;;;;34.57;24.17;;;15.70;99.90;;;;;;5086862;28;20268;-78
2023/03/31 10:53:04;;;;;;;28.80;23.87;;;15.90;99.90;;;;;;5085804;28;20457;-80
2023/03/31 10:55:37;;;;;;;22.05;19.77;;;15.90;99.90;;;;;;5084743;28;20444;-80
2023/03/31 10:58:21;;;;;;;15.57;14.97;;;15.90;99.90;;;;;;5088000;28;20203;-77
2023/03/31 11:01:04;;;;;;;15.37;14.73;;;15.70;99.90;;;;;;5085020;28;20454;-77
2023/03/31 11:03:44;;;;;;;14.47;13.90;;;15.60;99.90;;;;;;5088363;28;20569;-77
2023/03/31 11:06:22;;;;;;;14.77;14.13;;;15.60;99.90;;;;;;5088193;28;20501;-79
2023/03/31 11:09:03;;;;;;;15.73;14.70;;;15.40;99.90;;;;;;5087991;28;20467;-82
2023/03/31 11:11:54;;;;;;;14.40;13.80;;;15.20;99.90;;;;;;5082627;28;20453;-81
2023/03/31 11:14:33;;;;;;;15.73;14.93;;;15.10;99.90;;;;;;5084132;28;20849;-79
2023/03/31 11:17:09;;;;;;;15.00;14.20;;;14.90;99.90;;;;;;5082394;28;20465;-77
2023/03/31 11:19:47;;;;;;;14.30;13.80;;;14.70;99.90;;;;;;5084801;28;21021;-79
2023/03/31 11:22:25;;;;;;;13.60;13.30;;;13.60;99.90;;;;;;5085482;28;20460;-80
2023/03/31 11:25:20;;;;;;;14.00;13.70;;;13.10;99.90;;;;;;5085780;28;20453;-79
2023/03/31 11:28:03;;;;;;;14.37;14.07;;;13.00;99.90;;;;;;5077737;28;20891;-80
2023/03/31 11:30:38;;;;;;;14.23;13.77;;;12.90;1.00;;;;;;5085338;28;20560;-80
2023/03/31 11:33:29;;;;;;;13.60;13.00;;;12.80;1.00;;;;;;5085737;28;20470;-79
2023/03/31 11:36:11;;;;;;;13.60;13.30;;;12.60;1.00;;;;;;5085013;28;20457;-80
2023/03/31 11:38:49;;;;;;;13.50;13.10;;;12.50;1.00;;;;;;5082568;28;20511;-81
2023/03/31 11:41:21;;;;;;;14.20;13.60;;;12.50;1.00;;;;;;5072183;28;20496;-79
2023/03/31 11:43:53;;;;;;;13.60;13.30;;;12.50;1.00;;;;;;5083006;28;20450;-79
2023/03/31 11:46:24;;;;;;;13.93;13.33;;;12.30;1.00;;;;;;5086189;28;20474;-82
2023/03/31 11:48:58;;;;;;;13.87;13.37;;;12.40;1.00;;;;;;5081776;28;20497;-79
2023/03/31 11:51:29;;;;;;;13.67;13.30;;;12.20;1.00;;;;;;5085727;28;20486;-80
2023/03/31 11:54:00;;;;;;;13.63;13.33;;;12.50;1.00;;;;;;5080492;28;20450;-79
2023/03/31 11:56:38;;;;;;;14.83;14.23;;;12.70;1.00;;;;;;5085744;28;20468;-80
2023/03/31 11:59:07;;;;;;;13.80;13.50;;;13.00;1.00;;;;;;5083365;28;20476;-80
2023/03/31 12:01:44;;;;;;;14.63;14.07;;;13.20;1.00;;;;;;5081183;28;20455;-81
2023/03/31 12:04:25;;;;;;;14.07;13.73;;;13.40;1.00;;;;;;5083577;28;20460;-78
2023/03/31 12:07:02;;;;;;;13.40;13.00;;;13.30;1.00;;;;;;5079210;28;20454;-81
2023/03/31 12:09:38;;;;;;;13.70;13.40;;;13.30;1.00;;;;;;5084813;28;20513;-79
2023/03/31 12:12:15;;;;;;;14.80;14.00;;;13.30;1.00;;;;;;5085103;28;20475;-79
2023/03/31 12:14:50;;;;;;;12.97;12.77;;;13.40;1.00;;;;;;5085105;28;20451;-81
2023/03/31 12:17:21;;;;;;;13.67;13.37;;;13.50;99.90;;;;;;5082692;28;20475;-81
2023/03/31 12:19:54;;;;;;;13.40;13.10;;;13.80;99.90;;;;;;5083880;28;20464;-80
2023/03/31 12:22:26;;;;;;;13.90;13.50;;;13.60;99.90;;;;;;5084231;28;20535;-81
2023/03/31 12:24:55;;;;;;;13.50;13.20;;;13.60;99.90;;;;;;5085127;28;20447;-79
2023/03/31 12:27:31;;;;;;;13.50;13.20;;;13.60;99.90;;;;;;5078854;28;20530;-81
2023/03/31 12:30:02;;;;;;;13.57;13.27;;;13.70;99.90;;;;;;5085960;28;20508;-80
2023/03/31 12:32:35;;;;;;;14.43;13.77;;;13.90;99.90;;;;;;5083303;28;20525;-78
2023/03/31 12:35:08;;;;;;;13.70;13.40;;;13.90;99.90;;;;;;5081515;28;20474;-80
2023/03/31 12:38:10;;;;;;;13.40;13.10;;;14.00;99.90;;;;;;5083251;28;20447;-80
2023/03/31 12:40:50;;;;;;;14.67;14.10;;;14.00;99.90;;;;;;5083130;28;20478;-80
2023/03/31 12:43:47;;;;;;;14.50;14.00;;;13.80;99.90;;;;;;5084442;28;20461;-79
2023/03/31 12:46:29;;;;;;;13.90;13.47;;;13.90;99.90;;;;;;5083744;28;20448;-78
2023/03/31 12:49:21;;;;;;;13.43;13.23;;;14.00;99.90;;;;;;5081894;28;20504;-80
2023/03/31 12:52:04;;;;;;;14.00;13.70;;;14.10;99.90;;;;;;5084494;28;20823;-80
2023/03/31 12:54:54;;;;;;;14.77;14.20;;;14.20;99.90;;;;;;5084384;28;20517;-79
2023/03/31 12:57:23;;;;;;;13.93;13.33;;;14.30;99.90;;;;;;5084917;28;20450;-80
2023/03/31 13:00:22;;;;;;;14.10;13.60;;;14.30;99.90;;;;;;5085825;28;21005;-80